This is the latest recevied weather packets stored in our database for station/object JA1RBY-13. If no packets are shown the sender has not sent any weather packets the latest 10 day(s).
| Time | Temp. | Humidity | Pressure | Rain* | Wind** | Luminosity | Snow |
|---|---|---|---|---|---|---|---|
| 1777675896 | 21.11° C | 47% | 1003.8 hPa | 0 mm | - | - | - |
| 1777674996 | 20.56° C | 48% | 1003.6 hPa | 0 mm | - | - | - |
| 1777673197 | 17.78° C | 53% | 1003.1 hPa | 0 mm | - | - | - |
| 1777672298 | 16.67° C | 55% | 1003.1 hPa | 0 mm | - | - | - |
| 1777669596 | 13.89° C | 62% | 1001.4 hPa | 0 mm | - | - | - |
| 1777668698 | 12.78° C | 64% | 1001 hPa | 0 mm | - | - | - |
| 1777666897 | 11.67° C | 65% | 1000.4 hPa | 0 mm | - | - | - |
| 1777665997 | 11.11° C | 67% | 1000.4 hPa | 0 mm | - | - | - |
| 1777665097 | 11.11° C | 66% | 999.8 hPa | 0 mm | - | - | - |
| 1777664197 | 11.11° C | 66% | 999.2 hPa | 0 mm | - | - | - |
| 1777662397 | 12.22° C | 63% | 998.8 hPa | 0 mm | - | - | - |
| 1777661497 | 12.78° C | 63% | 998.2 hPa | 0 mm | - | - | - |
| 1777660597 | 12.78° C | 63% | 997.7 hPa | 0 mm | - | - | - |
| 1777659696 | 13.33° C | 61% | 997.3 hPa | 0 mm | - | - | - |
| 1777658798 | 13.33° C | 60% | 996.9 hPa | 0 mm | - | - | - |
| 1777657898 | 13.89° C | 59% | 996.5 hPa | 0 mm | - | - | - |
| 1777656098 | 13.89° C | 59% | 996.2 hPa | 0 mm | - | - | - |
| 1777655196 | 13.89° C | 60% | 996.4 hPa | 0 mm | - | - | - |
| 1777654296 | 13.89° C | 60% | 996.3 hPa | 0 mm | - | - | - |
| 1777653398 | 13.89° C | 59% | 996.2 hPa | 0 mm | - | - | - |
| 1777652498 | 13.89° C | 59% | 996.1 hPa | 0 mm | - | - | - |
| 1777651598 | 13.89° C | 60% | 996.1 hPa | 0 mm | - | - | - |
| 1777650698 | 13.89° C | 59% | 996.2 hPa | 0 mm | - | - | - |
| 1777649797 | 13.89° C | 59% | 996.4 hPa | 0 mm | - | - | - |
| 1777648898 | 13.89° C | 59% | 996.5 hPa | 0 mm | - | - | - |
* Rain latest hour (hover to see other rain measurements)
** Current wind speed in m/s (hover to see current wind gust speed)